Otto, Wyoming
Current Conditions -  °F | °C
As of 9:53 AM on Sunday 23 Nov 2014 (Local Time) from KGEY Reporting Station
Overcast Overcast  
Wind Chill: 25°   Ceiling: 10000
Heat Index: 33°   Visibility: 10mi
Dew Point: 23°   Wind: 9mph
Humidity: 66%   Direction: 290°WNW
Pressure: 29.91"   Gusts: NA
Location:  44.4°N, 108.28°W
Report Text: KGEY 231653Z AUTO 29008KT 10SM SCT080 OVC100 01/M05 A2991 RMK AO2 SLP164 T00061050
Loading
Personal Weather Stations






























Interactive Weather Map New forecast layout! Learn more

10-Day Weather Forecast

Advertisements
Track Severe Weather on mobile